createdAt,value
2018-11-04T00:01:34.195Z,7.34
2018-11-04T00:04:03.132Z,7.27
2018-11-04T00:06:32.158Z,7.29
2018-11-04T00:09:01.117Z,7.23
2018-11-04T00:11:30.191Z,7.23
2018-11-04T00:13:59.175Z,7.22
2018-11-04T00:16:28.128Z,7.23
2018-11-04T00:18:57.107Z,7.21
2018-11-04T00:21:26.051Z,7.09
2018-11-04T00:23:55.193Z,7.07
2018-11-04T00:26:24.202Z,7.04
2018-11-04T00:28:53.212Z,7.04
2018-11-04T00:31:22.190Z,6.97
2018-11-04T00:33:51.126Z,6.95
2018-11-04T00:36:20.080Z,6.94
2018-11-04T00:38:49.060Z,6.93
2018-11-04T00:41:18.010Z,6.88
2018-11-04T00:43:47.003Z,6.82
2018-11-04T00:46:15.959Z,6.79
2018-11-04T00:48:44.912Z,6.73
2018-11-04T00:51:13.878Z,6.78
2018-11-04T00:53:42.859Z,6.70
2018-11-04T00:56:11.878Z,6.76
2018-11-04T00:58:40.819Z,6.81
2018-11-04T01:01:09.743Z,6.80
2018-11-04T01:03:38.718Z,6.80
2018-11-04T01:06:07.673Z,6.79
2018-11-04T01:08:36.668Z,6.79
2018-11-04T01:11:06.025Z,6.76
2018-11-04T01:13:35.022Z,6.72
2018-11-04T01:16:03.972Z,6.72
2018-11-04T01:18:33.000Z,6.71
2018-11-04T01:21:02.012Z,6.69
2018-11-04T01:23:30.969Z,6.63
2018-11-04T01:25:59.945Z,6.58
2018-11-04T01:28:28.917Z,6.54
2018-11-04T01:30:57.900Z,6.52
2018-11-04T01:33:26.907Z,6.54
2018-11-04T01:35:55.901Z,6.59
2018-11-04T01:38:24.879Z,6.66
2018-11-04T01:40:53.888Z,6.68
2018-11-04T01:43:22.859Z,6.68
2018-11-04T01:45:51.827Z,6.76
2018-11-04T01:48:20.791Z,6.76
2018-11-04T01:50:49.766Z,6.76
2018-11-04T01:53:18.730Z,6.73
2018-11-04T01:55:47.694Z,6.71
2018-11-04T01:58:16.707Z,6.70
2018-11-04T02:00:45.683Z,6.66
2018-11-04T02:03:14.667Z,6.64
2018-11-04T02:05:43.622Z,6.63
2018-11-04T02:08:12.624Z,6.62
2018-11-04T02:10:41.604Z,6.56
2018-11-04T02:13:10.597Z,6.52
2018-11-04T02:15:39.568Z,6.53
2018-11-04T02:18:08.524Z,6.52
2018-11-04T02:20:37.508Z,6.51
2018-11-04T02:23:06.485Z,6.50
2018-11-04T02:25:35.475Z,6.47
2018-11-04T02:28:04.438Z,6.46
2018-11-04T02:30:33.411Z,6.46
2018-11-04T02:33:02.380Z,6.42
2018-11-04T02:35:31.423Z,6.39
2018-11-04T02:38:00.375Z,6.37
2018-11-04T02:40:29.332Z,6.34
2018-11-04T02:43:29.177Z,6.29
2018-11-04T02:45:58.137Z,6.29
2018-11-04T02:48:27.084Z,6.27
2018-11-04T02:50:56.057Z,6.16
2018-11-04T02:53:25.070Z,6.19
2018-11-04T02:55:54.017Z,6.20
2018-11-04T02:58:23.017Z,6.16
2018-11-04T03:00:51.998Z,6.15
2018-11-04T03:03:20.961Z,6.14
2018-11-04T03:05:49.979Z,6.11
2018-11-04T03:08:18.960Z,6.05
2018-11-04T03:10:47.929Z,6.00
2018-11-04T03:13:16.926Z,5.93
2018-11-04T03:15:45.908Z,5.92
2018-11-04T03:18:14.876Z,5.86
2018-11-04T03:20:43.953Z,5.82
2018-11-04T03:23:12.920Z,5.78
2018-11-04T03:25:41.896Z,5.71
2018-11-04T03:28:11.544Z,5.66
2018-11-04T03:30:40.603Z,5.65
2018-11-04T03:33:10.005Z,5.60
2018-11-04T03:35:39.016Z,5.50
2018-11-04T03:38:08.529Z,5.45
2018-11-04T03:40:37.728Z,5.40
2018-11-04T03:43:06.749Z,5.38
2018-11-04T03:45:35.772Z,5.38
2018-11-04T03:48:04.748Z,5.27
2018-11-04T03:50:33.717Z,5.23
2018-11-04T03:53:05.926Z,5.25
2018-11-04T03:55:35.680Z,5.24
2018-11-04T03:58:04.946Z,5.24
2018-11-04T04:00:33.948Z,5.26
2018-11-04T04:03:02.938Z,5.26
2018-11-04T04:05:31.928Z,5.27
2018-11-04T04:08:00.907Z,5.28
2018-11-04T04:10:29.875Z,5.28
2018-11-04T04:12:58.870Z,5.23
2018-11-04T04:15:27.952Z,5.27
2018-11-04T04:17:56.937Z,5.29
2018-11-04T04:20:25.902Z,5.33
2018-11-04T04:22:54.863Z,5.32
2018-11-04T04:25:23.870Z,5.34
2018-11-04T04:27:52.823Z,5.35
2018-11-04T04:30:21.796Z,5.33
2018-11-04T04:32:50.762Z,5.24
2018-11-04T04:35:19.740Z,5.20
2018-11-04T04:37:48.702Z,5.15
2018-11-04T04:40:17.680Z,5.11
2018-11-04T04:42:46.663Z,5.03
2018-11-04T04:45:15.620Z,5.04
2018-11-04T04:47:44.574Z,5.02
2018-11-04T04:50:13.535Z,5.01
2018-11-04T04:52:42.501Z,5.01
2018-11-04T04:55:11.455Z,4.99
2018-11-04T04:57:40.405Z,5.00
2018-11-04T05:00:09.362Z,5.01
2018-11-04T05:02:38.324Z,5.03
2018-11-04T05:05:07.467Z,5.04
2018-11-04T05:07:36.443Z,5.07
2018-11-04T05:10:05.660Z,5.13
2018-11-04T05:12:34.621Z,5.22
2018-11-04T05:15:03.588Z,5.28
2018-11-04T05:17:32.557Z,5.39
2018-11-04T05:20:01.487Z,5.47
2018-11-04T05:22:30.477Z,5.55
2018-11-04T05:24:59.602Z,5.69
2018-11-04T05:27:28.631Z,5.79
2018-11-04T05:29:57.671Z,5.85
2018-11-04T05:32:26.697Z,5.98
2018-11-04T05:34:55.702Z,6.08
2018-11-04T05:37:24.669Z,6.19
2018-11-04T05:39:53.639Z,6.26
2018-11-04T05:42:22.608Z,6.40
2018-11-04T05:44:51.583Z,6.47
2018-11-04T05:47:20.564Z,6.48
2018-11-04T05:49:49.530Z,6.54
2018-11-04T05:52:18.524Z,6.58
2018-11-04T05:54:47.475Z,6.66
2018-11-04T05:57:16.460Z,6.70
2018-11-04T05:59:45.443Z,6.70
2018-11-04T06:02:14.406Z,6.80
2018-11-04T06:04:43.375Z,6.92
2018-11-04T06:07:12.320Z,6.99
2018-11-04T06:09:41.325Z,7.13
2018-11-04T06:12:10.308Z,7.25
2018-11-04T06:14:39.329Z,7.37
2018-11-04T06:17:08.275Z,7.44
2018-11-04T06:19:37.320Z,7.54
2018-11-04T06:24:41.605Z,7.81
2018-11-04T06:27:10.588Z,7.90
2018-11-04T06:29:39.568Z,8.01
2018-11-04T06:32:08.524Z,8.02
2018-11-04T06:34:37.551Z,8.00
2018-11-04T06:37:06.561Z,8.08
2018-11-04T06:39:35.526Z,8.25
2018-11-04T06:42:04.606Z,8.41
2018-11-04T06:44:33.598Z,8.59
2018-11-04T06:47:02.622Z,8.65
2018-11-04T06:49:31.580Z,8.79
2018-11-04T06:52:00.566Z,9.02
2018-11-04T06:54:29.652Z,9.09
2018-11-04T06:56:58.612Z,9.21
2018-11-04T06:59:27.672Z,9.35
2018-11-04T07:01:56.646Z,9.53
2018-11-04T07:04:26.895Z,9.58
2018-11-04T07:06:55.887Z,9.67
2018-11-04T07:09:24.871Z,9.68
2018-11-04T07:11:53.867Z,9.82
2018-11-04T07:14:22.886Z,9.94
2018-11-04T07:16:51.896Z,10.05
2018-11-04T07:19:20.847Z,10.13
2018-11-04T07:21:49.883Z,10.26
2018-11-04T07:24:18.889Z,10.44
2018-11-04T07:26:47.854Z,10.62
2018-11-04T07:29:16.832Z,10.73
2018-11-04T07:31:45.785Z,10.87
2018-11-04T07:34:14.793Z,11.00
2018-11-04T07:36:43.781Z,11.17
2018-11-04T07:39:13.978Z,11.33
2018-11-04T07:41:42.920Z,11.45
2018-11-04T07:44:12.000Z,11.56
2018-11-04T07:46:40.980Z,11.55
2018-11-04T07:49:09.948Z,11.45
2018-11-04T07:51:39.043Z,11.66
2018-11-04T07:54:07.982Z,11.70
2018-11-04T07:56:37.745Z,11.79
2018-11-04T07:59:06.729Z,11.85
2018-11-04T08:01:35.787Z,11.73
2018-11-04T08:04:07.041Z,11.79
2018-11-04T08:06:36.008Z,11.91
2018-11-04T08:09:06.806Z,12.09
2018-11-04T08:11:35.778Z,12.24
2018-11-04T08:14:04.883Z,12.33
2018-11-04T08:16:33.966Z,12.46
2018-11-04T08:19:03.096Z,12.50
2018-11-04T08:21:32.103Z,12.70
2018-11-04T08:24:01.076Z,12.88
2018-11-04T08:26:30.066Z,12.86
2018-11-04T08:28:59.066Z,12.91
2018-11-04T08:31:28.061Z,13.05
2018-11-04T08:33:57.056Z,13.25
2018-11-04T08:36:26.020Z,13.64
2018-11-04T08:38:55.149Z,13.92
2018-11-04T08:41:24.236Z,14.04
2018-11-04T08:43:53.224Z,14.24
2018-11-04T08:46:22.171Z,14.62
2018-11-04T08:48:51.221Z,14.72
2018-11-04T08:51:20.276Z,14.82
2018-11-04T08:53:49.314Z,15.24
2018-11-04T08:56:18.291Z,15.57
2018-11-04T08:58:47.312Z,15.79
2018-11-04T09:01:16.391Z,15.93
2018-11-04T09:03:45.407Z,15.90
2018-11-04T09:06:14.435Z,15.89
2018-11-04T09:08:43.531Z,15.88
2018-11-04T09:11:12.519Z,15.94
2018-11-04T09:13:41.528Z,15.99
2018-11-04T09:16:10.497Z,16.02
2018-11-04T09:18:39.531Z,16.03
2018-11-04T09:21:08.501Z,16.21
2018-11-04T09:23:37.554Z,16.41
2018-11-04T09:26:06.594Z,16.56
2018-11-04T09:28:35.537Z,16.78
2018-11-04T09:31:04.497Z,16.83
2018-11-04T09:33:33.496Z,16.94
2018-11-04T09:36:02.563Z,17.13
2018-11-04T09:38:31.471Z,17.10
2018-11-04T09:41:00.524Z,17.32
2018-11-04T09:43:29.508Z,17.44
2018-11-04T09:45:58.491Z,17.68
2018-11-04T09:48:27.502Z,18.09
2018-11-04T09:50:56.512Z,18.92
2018-11-04T09:53:25.497Z,19.92
2018-11-04T09:55:54.515Z,20.37
2018-11-04T09:58:23.579Z,21.07
2018-11-04T10:00:52.554Z,21.80
2018-11-04T10:03:21.630Z,22.30
2018-11-04T10:05:50.608Z,22.20
2018-11-04T10:08:19.634Z,22.26
2018-11-04T10:10:48.625Z,22.57
2018-11-04T10:13:17.835Z,22.01
2018-11-04T10:15:46.743Z,21.72
2018-11-04T10:18:15.762Z,21.71
2018-11-04T10:20:45.107Z,21.89
2018-11-04T10:23:13.848Z,22.15
2018-11-04T10:25:42.884Z,22.25
2018-11-04T10:28:11.836Z,22.42
2018-11-04T10:30:40.821Z,22.41
2018-11-04T10:33:09.810Z,22.34
2018-11-04T10:35:38.804Z,22.29
2018-11-04T10:38:08.123Z,22.28
2018-11-04T10:40:37.091Z,22.52
2018-11-04T10:43:06.203Z,22.91
2018-11-04T10:45:35.215Z,22.80
2018-11-04T10:48:04.266Z,23.26
2018-11-04T10:50:33.241Z,23.40
2018-11-04T10:53:02.219Z,24.28
2018-11-04T10:55:31.238Z,25.23
2018-11-04T10:58:00.164Z,25.95
2018-11-04T11:00:34.224Z,26.10
2018-11-04T11:03:03.241Z,25.95
2018-11-04T11:05:32.244Z,26.27
2018-11-04T11:08:01.218Z,26.79
2018-11-04T11:10:30.225Z,26.44
2018-11-04T11:12:59.195Z,26.65
2018-11-04T11:15:28.292Z,26.30
2018-11-04T11:17:57.259Z,26.18
2018-11-04T11:20:26.259Z,25.24
2018-11-04T11:22:55.369Z,25.09
2018-11-04T11:25:24.272Z,24.73
2018-11-04T11:27:53.250Z,24.89
2018-11-04T11:30:22.235Z,25.52
2018-11-04T11:32:51.241Z,25.41
2018-11-04T11:35:20.174Z,24.89
2018-11-04T11:37:49.226Z,23.99
2018-11-04T11:40:18.209Z,23.15
2018-11-04T11:42:47.161Z,22.49
2018-11-04T11:45:16.170Z,21.97
2018-11-04T11:47:45.146Z,21.45
2018-11-04T11:50:14.123Z,21.08
2018-11-04T11:52:43.117Z,20.74
2018-11-04T11:55:12.102Z,20.54
2018-11-04T11:57:41.047Z,20.31
2018-11-04T12:00:11.032Z,20.08
2018-11-04T12:02:40.755Z,19.92
2018-11-04T12:05:10.141Z,19.75
2018-11-04T12:07:39.507Z,19.60
2018-11-04T12:10:10.768Z,19.47
2018-11-04T12:12:39.880Z,19.38
2018-11-04T12:15:09.923Z,19.27
2018-11-04T12:17:38.971Z,19.22
2018-11-04T12:20:09.346Z,19.16
2018-11-04T12:22:38.292Z,19.16
2018-11-04T12:25:08.423Z,19.14
2018-11-04T12:27:37.373Z,19.10
2018-11-04T12:30:08.300Z,19.10
2018-11-04T12:32:37.367Z,19.05
2018-11-04T12:35:06.975Z,19.00
2018-11-04T12:37:35.944Z,18.99
2018-11-04T12:40:06.193Z,18.93
2018-11-04T12:42:35.170Z,18.89
2018-11-04T12:45:04.283Z,18.93
2018-11-04T12:47:33.288Z,18.99
2018-11-04T12:50:02.246Z,18.94
2018-11-04T12:52:31.255Z,18.87
2018-11-04T12:55:00.215Z,18.89
2018-11-04T12:57:29.234Z,18.92
2018-11-04T12:59:58.262Z,18.90
2018-11-04T13:02:27.233Z,18.88
2018-11-04T13:04:56.286Z,18.83
2018-11-04T13:07:25.235Z,18.83
2018-11-04T13:09:54.183Z,18.86
2018-11-04T13:12:23.125Z,18.90
2018-11-04T13:14:52.126Z,18.84
2018-11-04T13:17:21.126Z,18.79
2018-11-04T13:19:50.154Z,18.79
2018-11-04T13:22:19.130Z,18.80
2018-11-04T13:24:48.137Z,18.79
2018-11-04T13:27:17.103Z,18.76
2018-11-04T13:29:46.049Z,18.72
2018-11-04T13:32:14.996Z,18.64
2018-11-04T13:34:43.968Z,18.64
2018-11-04T13:37:13.760Z,18.66
2018-11-04T13:39:42.739Z,18.65
2018-11-04T13:42:13.997Z,18.52
2018-11-04T13:44:43.188Z,18.47
2018-11-04T13:47:12.217Z,18.44
2018-11-04T13:49:41.210Z,18.43
2018-11-04T13:52:10.157Z,18.29
2018-11-04T13:54:39.110Z,18.33
2018-11-04T13:57:08.076Z,18.32
2018-11-04T13:59:37.188Z,18.30
2018-11-04T14:02:06.155Z,18.19
2018-11-04T14:04:35.124Z,18.12
2018-11-04T14:07:04.085Z,18.07
2018-11-04T14:09:33.098Z,17.98
2018-11-04T14:12:02.035Z,17.85
2018-11-04T14:14:30.990Z,17.78
2018-11-04T14:16:59.953Z,17.72
2018-11-04T14:19:28.917Z,17.65
2018-11-04T14:21:57.907Z,17.52
2018-11-04T14:24:26.871Z,17.49
2018-11-04T14:26:55.892Z,17.37
2018-11-04T14:29:24.873Z,17.31
2018-11-04T14:31:53.874Z,17.20
2018-11-04T14:34:22.833Z,17.11
2018-11-04T14:36:51.763Z,17.00
2018-11-04T14:39:20.731Z,16.93
2018-11-04T14:41:49.660Z,16.90
2018-11-04T14:44:18.617Z,16.78
2018-11-04T14:46:47.575Z,16.66
2018-11-04T14:49:16.625Z,16.55
2018-11-04T14:51:45.586Z,16.50
2018-11-04T14:54:14.707Z,16.45
2018-11-04T14:56:43.616Z,16.31
2018-11-04T14:59:12.606Z,16.16
2018-11-04T15:01:41.615Z,16.05
2018-11-04T15:04:10.527Z,15.97
2018-11-04T15:06:39.472Z,15.85
2018-11-04T15:09:08.560Z,15.72
2018-11-04T15:11:37.516Z,15.68
2018-11-04T15:14:06.670Z,15.52
2018-11-04T15:16:35.630Z,15.48
2018-11-04T15:19:04.650Z,15.41
2018-11-04T15:21:33.706Z,15.31
2018-11-04T15:24:02.669Z,15.27
2018-11-04T15:26:31.703Z,15.13
2018-11-04T15:29:00.667Z,14.97
2018-11-04T15:31:29.638Z,14.82
2018-11-04T15:33:58.637Z,14.73
2018-11-04T15:36:27.605Z,14.59
2018-11-04T15:38:56.595Z,14.45
2018-11-04T15:41:25.530Z,14.37
2018-11-04T15:43:54.565Z,14.29
2018-11-04T15:46:23.514Z,14.20
2018-11-04T15:48:52.509Z,14.18
2018-11-04T15:51:21.469Z,14.18
2018-11-04T15:53:50.464Z,14.18
2018-11-04T15:56:25.586Z,14.13
2018-11-04T15:58:54.559Z,14.00
2018-11-04T16:01:23.514Z,13.81
2018-11-04T16:03:53.843Z,13.78
2018-11-04T16:06:22.860Z,13.82
2018-11-04T16:08:51.814Z,13.83
2018-11-04T16:11:20.777Z,13.74
2018-11-04T16:13:49.856Z,13.71
2018-11-04T16:16:18.798Z,13.57
2018-11-04T16:18:47.782Z,13.46
2018-11-04T16:21:16.786Z,13.47
2018-11-04T16:23:45.739Z,13.37
2018-11-04T16:26:14.718Z,13.28
2018-11-04T16:28:43.729Z,13.18
2018-11-04T16:31:12.699Z,13.08
2018-11-04T16:33:41.748Z,12.95
2018-11-04T16:36:10.702Z,12.90
2018-11-04T16:38:39.644Z,12.83
2018-11-04T16:41:08.641Z,12.76
2018-11-04T16:43:37.793Z,12.70
2018-11-04T16:46:07.044Z,12.58
2018-11-04T16:48:36.019Z,12.49
2018-11-04T16:51:05.042Z,12.40
2018-11-04T16:53:34.015Z,12.29
2018-11-04T16:56:03.088Z,12.30
2018-11-04T16:58:32.021Z,12.29
2018-11-04T17:01:01.003Z,12.26
2018-11-04T17:03:29.960Z,12.25
2018-11-04T17:05:58.896Z,12.20
2018-11-04T17:08:27.847Z,12.16
2018-11-04T17:11:04.430Z,12.06
2018-11-04T17:13:33.419Z,11.97
2018-11-04T17:16:02.397Z,11.90
2018-11-04T17:18:31.455Z,11.85
2018-11-04T17:21:00.434Z,11.81
2018-11-04T17:23:29.376Z,11.76
2018-11-04T17:25:58.351Z,11.74
2018-11-04T17:28:27.863Z,11.70
2018-11-04T17:30:56.819Z,11.72
2018-11-04T17:33:25.784Z,11.66
2018-11-04T17:35:54.828Z,11.64
2018-11-04T17:38:23.832Z,11.58
2018-11-04T17:40:52.781Z,11.47
2018-11-04T17:43:21.740Z,11.39
2018-11-04T17:45:50.699Z,11.34
2018-11-04T17:48:19.699Z,11.30
2018-11-04T17:50:48.651Z,11.26
2018-11-04T17:53:17.764Z,11.26
2018-11-04T17:55:46.767Z,11.25
2018-11-04T17:58:15.728Z,11.18
2018-11-04T18:00:44.749Z,11.17
2018-11-04T18:03:13.865Z,11.14
2018-11-04T18:05:42.883Z,11.13
2018-11-04T18:08:11.879Z,11.08
2018-11-04T18:10:40.873Z,11.05
2018-11-04T18:13:09.828Z,11.03
2018-11-04T18:15:38.862Z,11.02
2018-11-04T18:18:07.798Z,10.98
2018-11-04T18:20:36.757Z,10.87
2018-11-04T18:23:05.785Z,10.78
2018-11-04T18:25:34.754Z,10.72
2018-11-04T18:28:03.716Z,10.65
2018-11-04T18:30:32.651Z,10.57
2018-11-04T18:33:01.613Z,10.49
2018-11-04T18:35:30.620Z,10.39
2018-11-04T18:37:59.686Z,10.37
2018-11-04T18:40:28.652Z,10.35
2018-11-04T18:42:57.694Z,10.31
2018-11-04T18:45:26.719Z,10.27
2018-11-04T18:47:55.726Z,10.22
2018-11-04T18:50:24.803Z,10.17
2018-11-04T18:52:53.771Z,10.12
2018-11-04T18:55:22.729Z,10.12
2018-11-04T18:57:55.616Z,10.12
2018-11-04T19:00:24.600Z,10.13
2018-11-04T19:02:53.549Z,10.13
2018-11-04T19:05:22.660Z,10.13
2018-11-04T19:07:51.644Z,10.13
2018-11-04T19:10:20.730Z,10.04
2018-11-04T19:12:49.772Z,9.96
2018-11-04T19:15:18.744Z,9.87
2018-11-04T19:17:47.692Z,9.72
2018-11-04T19:20:17.024Z,9.67
2018-11-04T19:22:46.077Z,9.52
2018-11-04T19:25:15.750Z,9.51
2018-11-04T19:27:44.793Z,9.48
2018-11-04T19:30:15.095Z,9.47
2018-11-04T19:32:44.488Z,9.45
2018-11-04T19:35:14.299Z,9.49
2018-11-04T19:37:43.263Z,9.47
2018-11-04T19:40:13.300Z,9.51
2018-11-04T19:42:42.337Z,9.54
2018-11-04T19:45:11.257Z,9.53
2018-11-04T19:47:40.569Z,9.49
2018-11-04T19:50:11.594Z,9.45
2018-11-04T19:52:40.716Z,9.42
2018-11-04T19:55:10.425Z,9.39
2018-11-04T19:57:39.478Z,9.32
2018-11-04T20:00:09.995Z,9.28
2018-11-04T20:02:38.958Z,9.25
2018-11-04T20:05:09.332Z,9.24
2018-11-04T20:07:38.231Z,9.13
2018-11-04T20:10:09.698Z,9.05
2018-11-04T20:12:43.761Z,8.98
2018-11-04T20:15:12.730Z,8.88
2018-11-04T20:17:41.698Z,8.90
2018-11-04T20:20:12.348Z,8.89
2018-11-04T20:22:41.891Z,8.85
2018-11-04T20:25:15.951Z,8.84
2018-11-04T20:27:44.923Z,8.83
2018-11-04T20:30:14.428Z,8.87
2018-11-04T20:32:48.506Z,8.87
2018-11-04T20:35:17.894Z,8.83
2018-11-04T20:37:46.890Z,8.81
2018-11-04T20:40:20.874Z,8.83
2018-11-04T20:42:49.852Z,8.81
2018-11-04T20:45:18.814Z,8.78
2018-11-04T20:47:52.965Z,8.75
2018-11-04T20:50:26.908Z,8.76
2018-11-04T20:52:55.927Z,8.51
2018-11-04T20:55:28.925Z,8.73
2018-11-04T20:57:58.815Z,8.69
2018-11-04T21:00:27.812Z,8.71
2018-11-04T21:02:57.184Z,8.71
2018-11-04T21:05:26.184Z,8.65
2018-11-04T21:07:55.472Z,8.59
2018-11-04T21:10:24.487Z,8.55
2018-11-04T21:12:53.499Z,8.51
2018-11-04T21:15:22.502Z,8.43
2018-11-04T21:17:51.435Z,8.50
2018-11-04T21:20:20.407Z,8.56
2018-11-04T21:22:49.386Z,8.61
2018-11-04T21:25:18.477Z,8.64
2018-11-04T21:27:47.462Z,8.67
2018-11-04T21:30:16.396Z,8.74
2018-11-04T21:32:45.367Z,8.75
2018-11-04T21:35:14.323Z,8.75
2018-11-04T21:37:43.312Z,8.74
2018-11-04T21:40:12.240Z,8.77
2018-11-04T21:42:41.255Z,8.76
2018-11-04T21:45:12.219Z,8.76
2018-11-04T21:47:41.184Z,8.66
2018-11-04T21:50:10.817Z,8.56
2018-11-04T21:52:39.897Z,8.50
2018-11-04T21:55:11.265Z,8.38
2018-11-04T21:57:40.710Z,8.35
2018-11-04T22:00:11.608Z,8.30
2018-11-04T22:02:40.750Z,8.29
2018-11-04T22:05:11.239Z,8.28
2018-11-04T22:07:41.298Z,8.15
2018-11-04T22:10:12.418Z,8.28
2018-11-04T22:12:41.918Z,8.32
2018-11-04T22:15:11.135Z,8.26
2018-11-04T22:17:40.552Z,8.25
2018-11-04T22:20:11.286Z,8.19
2018-11-04T22:22:40.518Z,8.21
2018-11-04T22:25:10.464Z,8.21
2018-11-04T22:27:39.407Z,8.21
2018-11-04T22:30:09.689Z,8.18
2018-11-04T22:32:39.022Z,8.10
2018-11-04T22:35:09.596Z,8.03
2018-11-04T22:37:38.736Z,8.00
2018-11-04T22:40:08.730Z,7.94
2018-11-04T22:42:37.686Z,7.81
2018-11-04T22:45:07.883Z,7.72
2018-11-04T22:47:36.847Z,7.72
2018-11-04T22:50:07.961Z,7.65
2018-11-04T22:52:36.952Z,7.64
2018-11-04T22:55:05.967Z,7.69
2018-11-04T22:57:34.909Z,7.65
2018-11-04T23:00:03.845Z,7.59
2018-11-04T23:02:32.865Z,7.24
2018-11-04T23:05:06.792Z,7.54
2018-11-04T23:07:35.796Z,7.48
2018-11-04T23:10:05.400Z,7.45
2018-11-04T23:12:34.348Z,7.43
2018-11-04T23:15:03.330Z,7.44
2018-11-04T23:17:32.280Z,7.42
2018-11-04T23:20:01.271Z,7.53
2018-11-04T23:22:30.218Z,7.66
2018-11-04T23:24:59.279Z,7.71
2018-11-04T23:27:28.212Z,7.71
2018-11-04T23:29:57.247Z,7.68
2018-11-04T23:32:26.198Z,7.67
2018-11-04T23:34:55.159Z,7.70
2018-11-04T23:37:24.111Z,7.79
2018-11-04T23:39:53.075Z,7.83
2018-11-04T23:42:22.019Z,7.85
2018-11-04T23:44:50.974Z,7.77
2018-11-04T23:47:19.924Z,7.68
2018-11-04T23:49:48.856Z,7.58
2018-11-04T23:52:17.886Z,7.54
2018-11-04T23:54:46.836Z,7.53
2018-11-04T23:57:15.772Z,7.51
2018-11-04T23:59:44.714Z,7.52
